Terminal Aerodrome Forecast
Issued by NWS

Home | Current Version | Previous Version | Text Only | Print | Product List | Glossary On
Versions: 1 2 3 4 5 6 7 8 9 10 11 12 13 14 15 16
988
FTUS43 KOAX 230520
TAFCDR
TAF
KCDR 230520Z 2306/2406 27007KT P6SM BKN090
     FM231600 35014G25KT P6SM BKN080
     FM240000 03008KT P6SM SKC=

USA.gov is the U.S. government's official web portal to all federal, state and local government web resources and services.